Ironside, Oregon
Current Conditions -  °F | °C
As of 2:53 AM on Tuesday 21 Oct 2014 (Local Time) from KBKE Reporting Station
Overcast Overcast  
Wind Chill: 42°   Ceiling: 9000
Heat Index: 46°   Visibility: 10mi
Dew Point: 40°   Wind: 7mph
Humidity: 79%   Direction: 230°SW
Pressure: 29.88"   Gusts: NA
Location:  44.32°N, 117.95°W
Report Text: KBKE 210853Z AUTO 23006KT 10SM OVC090 08/04 A2988 RMK AO2 RAE0754B16E25 SLP105 P0000 60000 T00780044 51010
Loading
Personal Weather Stations






























Interactive Weather Map
Tropical Storm Tracking
New forecast layout! Learn more

10-Day Weather Forecast

Advertisements
Track Severe Weather on mobile